Time;durP1;ratioP1;P1;durP2;ratioP2;P2;SDS_P1;SDS_P2;PMS_P1;PMS_P2;Temp;Humidity;BMP_temperature;BMP_pressure;BME280_temperature;BME280_humidity;BME280_pressure;Samples;Min_cycle;Max_cycle;Signal;HPM_P1;HPM_P2
2022/10/16 00:00:42;;;;;;;11.98;2.65;;;14.70;99.90;;;13.82;100.00;97245.03;5010497;28;20734;-70
2022/10/16 00:03:09;;;;;;;19.17;3.00;;;14.60;99.90;;;13.80;100.00;97236.50;5009882;28;20459;-70
2022/10/16 00:05:40;;;;;;;8.25;2.53;;;14.60;99.90;;;13.77;100.00;97231.72;5010303;28;20404;-70
2022/10/16 00:08:07;;;;;;;11.25;2.90;;;14.60;99.90;;;13.77;100.00;97233.59;5010345;28;20887;-69
2022/10/16 00:10:33;;;;;;;14.15;2.83;;;14.60;99.90;;;13.75;100.00;97223.25;5011819;28;20408;-70
2022/10/16 00:12:59;;;;;;;10.25;2.85;;;14.60;99.90;;;13.74;100.00;97234.97;5013473;28;20892;-70
2022/10/16 00:15:27;;;;;;;5.80;2.63;;;14.60;99.90;;;13.73;100.00;97232.56;5012683;28;20416;-70
2022/10/16 00:17:52;;;;;;;19.80;3.10;;;14.60;99.90;;;13.73;100.00;97230.72;5013810;28;20806;-70
2022/10/16 00:20:18;;;;;;;12.98;3.05;;;14.60;99.90;;;13.72;100.00;97223.78;5013821;28;20412;-69
2022/10/16 00:22:44;;;;;;;7.87;2.60;;;14.60;99.90;;;13.70;100.00;97222.47;5013479;28;20743;-69
2022/10/16 00:25:10;;;;;;;8.43;3.03;;;14.60;99.90;;;13.68;100.00;97224.63;5013657;28;20465;-69
2022/10/16 00:27:36;;;;;;;10.50;2.80;;;14.50;99.90;;;13.68;100.00;97232.59;5013722;28;20476;-70
2022/10/16 00:30:03;;;;;;;4.93;2.83;;;14.50;99.90;;;13.64;100.00;97229.69;5012403;28;20416;-70
2022/10/16 00:32:30;;;;;;;14.50;2.78;;;14.50;99.90;;;13.63;100.00;97225.44;5013513;28;20440;-70
2022/10/16 00:34:56;;;;;;;14.37;2.97;;;14.50;99.90;;;13.61;100.00;97232.88;5013153;28;20953;-70
2022/10/16 00:37:22;;;;;;;6.28;2.72;;;14.50;99.90;;;13.60;100.00;97238.50;5013445;28;20416;-69
2022/10/16 00:39:48;;;;;;;5.10;2.80;;;14.40;99.90;;;13.59;100.00;97234.25;5013476;28;20408;-69
2022/10/16 00:42:17;;;;;;;7.50;2.50;;;14.40;99.90;;;13.59;100.00;97243.03;5013404;28;20405;-70
2022/10/16 00:44:48;;;;;;;9.35;2.97;;;14.40;99.90;;;13.57;100.00;97239.81;5012914;28;20487;-70
2022/10/16 00:47:22;;;;;;;9.23;2.70;;;14.40;99.90;;;13.57;100.00;97234.50;5013405;28;20502;-70
2022/10/16 00:49:53;;;;;;;7.57;3.08;;;14.40;99.90;;;13.52;100.00;97242.53;5013404;28;20420;-70
2022/10/16 00:52:19;;;;;;;10.18;2.80;;;14.30;99.90;;;13.52;100.00;97224.69;5013315;28;20487;-70
2022/10/16 00:54:47;;;;;;;10.43;2.75;;;14.40;99.90;;;13.52;100.00;97229.22;5012638;28;20401;-70
2022/10/16 00:57:13;;;;;;;10.35;2.70;;;14.40;99.90;;;13.51;100.00;97235.59;5013016;28;20420;-70
2022/10/16 00:59:42;;;;;;;8.27;2.88;;;14.30;99.90;;;13.50;100.00;97239.34;5013184;28;20513;-70
2022/10/16 01:02:12;;;;;;;14.63;2.85;;;14.30;99.90;;;13.50;100.00;97234.81;5013105;28;20427;-70
2022/10/16 01:04:41;;;;;;;5.37;2.90;;;14.30;99.90;;;13.50;100.00;97244.66;5012566;28;20448;-70
2022/10/16 01:07:23;;;;;;;10.73;3.20;;;14.30;99.90;;;13.49;100.00;97241.19;5012975;28;20458;-70
2022/10/16 01:10:03;;;;;;;7.85;2.90;;;14.30;99.90;;;13.54;100.00;97245.69;5012970;28;20486;-70
2022/10/16 01:12:39;;;;;;;14.00;2.92;;;14.40;99.90;;;13.55;100.00;97247.28;5012800;28;20403;-70
2022/10/16 01:15:14;;;;;;;6.25;2.90;;;14.40;99.90;;;13.59;100.00;97250.19;5027690;28;20824;-70
2022/10/16 01:17:47;;;;;;;5.53;2.60;;;14.40;99.90;;;13.55;100.00;97260.56;5012661;28;20531;-70
2022/10/16 01:20:25;;;;;;;6.47;2.67;;;14.40;99.90;;;13.54;100.00;97248.34;5012785;28;20405;-70
2022/10/16 01:23:09;;;;;;;11.80;3.50;;;14.40;99.90;;;13.55;100.00;97250.72;5012078;28;20484;-70
2022/10/16 01:26:10;;;;;;;9.90;2.92;;;14.40;99.90;;;13.57;100.00;97237.97;5012492;28;20884;-70
2022/10/16 01:28:45;;;;;;;11.75;2.90;;;14.40;99.90;;;13.60;100.00;97241.94;5012552;28;20397;-70
2022/10/16 01:31:17;;;;;;;10.20;2.75;;;14.40;99.90;;;13.62;100.00;97239.00;5012551;28;20867;-70
2022/10/16 01:33:47;;;;;;;6.70;2.33;;;14.40;99.90;;;13.61;100.00;97243.53;5011992;28;20393;-70
2022/10/16 01:36:21;;;;;;;9.07;2.40;;;14.50;99.90;;;13.61;100.00;97237.44;5012341;28;20920;-70
2022/10/16 01:38:52;;;;;;;9.32;2.58;;;14.40;99.90;;;13.62;100.00;97242.44;5012431;28;20878;-70
2022/10/16 01:41:24;;;;;;;7.05;2.30;;;14.40;99.90;;;13.63;100.00;97240.59;5012339;28;20416;-70
2022/10/16 01:44:01;;;;;;;5.25;2.42;;;14.50;99.90;;;13.64;100.00;97239.53;5011860;28;20454;-70
2022/10/16 01:46:30;;;;;;;11.02;3.05;;;14.50;99.90;;;13.60;100.00;97239.28;5010840;28;20953;-70
2022/10/16 01:48:57;;;;;;;13.25;2.45;;;14.40;99.90;;;13.59;100.00;97240.34;5012228;28;20412;-70
2022/10/16 01:51:24;;;;;;;16.00;2.88;;;14.40;99.90;;;13.60;100.00;97238.50;5012052;28;20401;-70
2022/10/16 01:53:55;;;;;;;18.80;2.67;;;14.40;99.90;;;13.61;100.00;97224.91;5011621;28;20401;-70
2022/10/16 01:56:24;;;;;;;8.10;2.70;;;14.40;99.90;;;13.63;100.00;97236.06;5011992;28;20424;-70
2022/10/16 01:58:55;;;;;;;7.22;2.20;;;14.50;99.90;;;13.63;100.00;97233.41;5012022;28;20393;-70
2022/10/16 02:01:25;;;;;;;13.55;2.50;;;14.50;99.90;;;13.66;100.00;97234.72;5012018;28;20405;-70
2022/10/16 02:03:56;;;;;;;5.45;2.25;;;14.50;99.90;;;13.65;100.00;97233.13;5011501;28;20471;-70
2022/10/16 02:06:22;;;;;;;4.53;2.20;;;14.50;99.90;;;13.67;100.00;97234.47;5027086;28;20440;-70
2022/10/16 02:08:48;;;;;;;10.05;2.30;;;14.50;99.90;;;13.71;100.00;97226.72;5011783;28;20408;-70
2022/10/16 02:11:14;;;;;;;20.88;2.70;;;14.50;99.90;;;13.68;100.00;97227.28;5011812;28;20495;-70
2022/10/16 02:13:46;;;;;;;7.43;2.45;;;14.50;99.90;;;13.66;100.00;97232.88;5011194;28;20416;-70
2022/10/16 02:16:14;;;;;;;7.15;2.20;;;14.50;99.90;;;13.70;100.00;97235.75;5011536;28;20494;-70
2022/10/16 02:18:42;;;;;;;5.82;2.40;;;14.50;99.90;;;13.69;100.00;97234.97;5011647;28;20404;-70
2022/10/16 02:21:16;;;;;;;7.80;2.33;;;14.50;99.90;;;13.68;100.00;97244.00;5011581;28;20755;-70
2022/10/16 02:23:51;;;;;;;6.40;2.42;;;14.50;99.90;;;13.73;100.00;97240.53;5011083;28;20405;-70
2022/10/16 02:26:27;;;;;;;4.47;2.10;;;14.60;99.90;;;13.73;100.00;97240.53;5011446;28;20397;-70
2022/10/16 02:28:59;;;;;;;11.63;2.55;;;14.60;99.90;;;13.72;100.00;97241.63;5011412;28;20436;-70
2022/10/16 02:31:30;;;;;;;5.32;2.30;;;14.60;99.90;;;13.72;100.00;97239.75;5011404;28;20944;-70
2022/10/16 02:33:59;;;;;;;7.78;2.35;;;14.60;99.90;;;13.72;100.00;97225.66;5010169;28;20405;-70
2022/10/16 02:36:27;;;;;;;13.07;2.53;;;14.60;99.90;;;13.71;100.00;97230.19;5011261;28;20413;-70
2022/10/16 02:38:53;;;;;;;4.15;2.08;;;14.60;99.90;;;13.72;100.00;97237.09;5011219;28;20405;-70
2022/10/16 02:41:21;;;;;;;7.40;2.10;;;14.60;99.90;;;13.70;100.00;97239.22;5011284;28;20412;-70
2022/10/16 02:43:46;;;;;;;11.23;2.50;;;14.60;99.90;;;13.69;100.00;97229.66;5010697;28;20404;-70
2022/10/16 02:46:12;;;;;;;14.87;2.87;;;14.50;99.90;;;13.69;100.00;97234.97;5011126;28;20405;-70
2022/10/16 02:48:39;;;;;;;5.50;2.30;;;14.50;99.90;;;13.68;100.00;97228.06;5011158;28;20405;-70
2022/10/16 02:51:06;;;;;;;7.03;2.40;;;14.50;99.90;;;13.66;100.00;97240.06;5011156;28;20408;-70
2022/10/16 02:53:32;;;;;;;19.40;3.13;;;14.50;99.90;;;13.64;100.00;97235.00;5010670;28;20419;-70
2022/10/16 02:55:58;;;;;;;8.15;2.38;;;14.50;99.90;;;13.69;100.00;97247.47;5026151;28;20432;-70
2022/10/16 02:58:24;;;;;;;7.45;2.42;;;14.50;99.90;;;13.62;100.00;97258.41;5011036;28;20404;-70
2022/10/16 03:00:50;;;;;;;6.85;2.30;;;14.50;99.90;;;13.60;100.00;97255.25;5011017;28;20466;-70
2022/10/16 03:03:15;;;;;;;8.37;2.07;;;14.40;99.90;;;13.64;100.00;97250.97;5010426;28;20433;-70
2022/10/16 03:05:45;;;;;;;6.53;2.40;;;14.50;99.90;;;13.65;100.00;97251.75;5010812;28;20405;-70
2022/10/16 03:08:11;;;;;;;7.73;2.50;;;14.50;99.90;;;13.67;100.00;97250.44;5010815;28;20946;-70
2022/10/16 03:10:37;;;;;;;6.72;2.28;;;14.50;99.90;;;13.67;100.00;97252.28;5010850;28;20423;-70
2022/10/16 03:13:03;;;;;;;4.72;2.20;;;14.50;99.90;;;13.67;100.00;97245.09;5010162;28;20471;-70
2022/10/16 03:15:29;;;;;;;5.93;2.03;;;14.50;99.90;;;13.69;100.00;97258.09;5010744;28;20436;-70
2022/10/16 03:17:57;;;;;;;11.53;2.20;;;14.50;99.90;;;13.69;100.00;97258.09;5010734;28;20413;-70
2022/10/16 03:20:23;;;;;;;10.43;2.50;;;14.50;99.90;;;13.66;100.00;97254.16;5010751;28;20404;-70
2022/10/16 03:22:50;;;;;;;13.95;2.95;;;14.50;99.90;;;13.63;100.00;97252.03;5010259;28;20419;-70
2022/10/16 03:25:16;;;;;;;10.63;2.65;;;14.50;99.90;;;13.62;100.00;97253.09;5010799;28;20405;-69
2022/10/16 03:27:44;;;;;;;7.20;2.40;;;14.50;99.90;;;13.61;100.00;97256.81;5010715;28;20420;-70
2022/10/16 03:30:11;;;;;;;5.50;2.40;;;14.50;99.90;;;13.63;100.00;97248.56;5010679;28;20397;-70
2022/10/16 03:32:37;;;;;;;5.47;2.45;;;14.50;99.90;;;13.63;100.00;97252.03;5010539;28;20870;-70
2022/10/16 03:35:04;;;;;;;10.13;2.40;;;14.50;99.90;;;13.55;100.00;97249.94;5010076;28;20436;-70
2022/10/16 03:37:30;;;;;;;8.20;2.25;;;14.40;99.90;;;13.53;100.00;97250.19;5010422;28;20822;-70
2022/10/16 03:39:57;;;;;;;8.10;2.20;;;14.40;99.90;;;13.52;100.00;97250.50;5010651;28;20397;-70
2022/10/16 03:42:24;;;;;;;5.60;2.42;;;14.40;99.90;;;13.53;100.00;97254.75;5010591;28;20462;-70
2022/10/16 03:44:50;;;;;;;11.85;2.75;;;14.40;99.90;;;13.53;100.00;97255.53;5011973;28;20405;-70
2022/10/16 03:47:20;;;;;;;13.93;2.53;;;14.40;99.90;;;13.52;100.00;97251.28;5014498;28;20404;-70
2022/10/16 03:49:46;;;;;;;8.48;2.20;;;14.40;99.90;;;13.53;100.00;97249.44;5014440;28;20420;-70
2022/10/16 03:52:12;;;;;;;6.05;2.25;;;14.30;99.90;;;13.50;100.00;97250.75;5014354;28;20471;-70
2022/10/16 03:54:37;;;;;;;11.82;2.80;;;14.30;99.90;;;13.48;100.00;97265.38;5029123;28;20420;-70
2022/10/16 03:57:05;;;;;;;8.80;2.17;;;14.30;99.90;;;13.48;100.00;97262.72;5014223;28;20420;-70
2022/10/16 03:59:31;;;;;;;4.05;2.25;;;14.30;99.90;;;13.45;100.00;97265.94;5014230;28;20402;-70
2022/10/16 04:01:57;;;;;;;6.10;2.17;;;14.30;99.90;;;13.48;100.00;97262.72;5014283;28;20420;-69
2022/10/16 04:04:24;;;;;;;10.85;2.67;;;14.30;99.90;;;13.46;100.00;97251.56;5013824;28;20458;-70
2022/10/16 04:06:49;;;;;;;12.63;2.40;;;14.30;99.90;;;13.46;100.00;97264.84;5014040;28;20401;-70
2022/10/16 04:09:15;;;;;;;8.27;2.50;;;14.30;99.90;;;13.44;100.00;97259.84;5014201;28;20415;-70
2022/10/16 04:11:41;;;;;;;12.03;2.70;;;14.30;99.90;;;13.43;100.00;97255.59;5014062;28;20428;-70
2022/10/16 04:14:09;;;;;;;8.53;2.47;;;14.30;99.90;;;13.42;100.00;97258.50;5040670;22;20794;-73
2022/10/16 04:16:34;;;;;;;6.35;2.40;;;14.30;99.90;;;13.41;100.00;97257.72;5068855;28;20409;-73
2022/10/16 04:19:00;;;;;;;13.13;2.75;;;14.30;99.90;;;13.42;100.00;97256.66;5053661;28;20488;-73
2022/10/16 04:21:26;;;;;;;7.90;2.43;;;14.30;99.90;;;13.43;100.00;97260.09;5053453;28;20409;-74
2022/10/16 04:23:52;;;;;;;13.60;2.50;;;14.30;99.90;;;13.45;100.00;97260.63;5047234;28;20402;-74
2022/10/16 04:26:18;;;;;;;14.75;2.58;;;14.30;99.90;;;13.43;100.00;97257.44;5033461;28;20761;-72
2022/10/16 04:28:44;;;;;;;13.80;3.22;;;14.30;99.90;;;13.42;100.00;97256.66;5033492;28;20403;-73
2022/10/16 04:31:11;;;;;;;4.00;1.92;;;14.30;99.90;;;13.45;100.00;97257.97;5033376;28;20777;-72
2022/10/16 04:33:37;;;;;;;5.80;2.60;;;14.30;99.90;;;13.42;100.00;97253.19;5032908;28;20454;-72
2022/10/16 04:36:04;;;;;;;6.38;2.20;;;14.30;99.90;;;13.42;100.00;97258.50;5033169;28;20403;-73
2022/10/16 04:38:31;;;;;;;9.43;2.88;;;14.30;99.90;;;13.41;100.00;97259.56;5033246;28;20477;-73
2022/10/16 04:40:57;;;;;;;10.52;2.50;;;14.30;99.90;;;13.41;100.00;97260.38;5033227;28;20892;-73
2022/10/16 04:43:23;;;;;;;16.63;2.70;;;14.30;99.90;;;13.45;100.00;97263.28;5032832;28;20462;-73
2022/10/16 04:45:50;;;;;;;8.82;2.40;;;14.30;99.90;;;13.44;100.00;97269.69;5032998;28;20414;-73
2022/10/16 04:48:18;;;;;;;7.97;2.20;;;14.30;99.90;;;13.41;100.00;97273.66;5033155;28;20401;-73
2022/10/16 04:50:44;;;;;;;5.97;2.30;;;14.30;99.90;;;13.40;100.00;97280.03;5033107;28;20395;-73
2022/10/16 04:53:10;;;;;;;13.20;2.78;;;14.30;99.90;;;13.41;100.00;97286.16;5032585;28;20757;-73
2022/10/16 04:55:37;;;;;;;5.70;2.33;;;14.30;99.90;;;13.45;100.00;97287.22;5032025;28;20970;-73
2022/10/16 04:58:03;;;;;;;5.97;2.33;;;14.30;99.90;;;13.43;100.00;97281.38;5033016;28;20799;-73
2022/10/16 05:00:29;;;;;;;13.43;2.70;;;14.30;99.90;;;13.43;100.00;97292.00;5032993;28;20571;-74
2022/10/16 05:02:55;;;;;;;13.95;2.83;;;14.30;99.90;;;13.44;100.00;97296.25;5032478;28;20761;-74
2022/10/16 05:05:22;;;;;;;9.70;2.60;;;14.30;99.90;;;13.41;100.00;97291.47;5032575;28;20395;-73
2022/10/16 05:07:49;;;;;;;4.78;2.20;;;14.20;99.90;;;13.43;100.00;97294.66;5032718;28;20403;-73
2022/10/16 05:10:15;;;;;;;9.15;2.60;;;14.30;99.90;;;13.42;100.00;97293.06;5032674;28;20772;-74
2022/10/16 05:12:41;;;;;;;10.63;2.78;;;14.30;99.90;;;13.42;100.00;97296.53;5032352;28;20410;-73
2022/10/16 05:15:09;;;;;;;8.70;2.40;;;14.30;99.90;;;13.41;100.00;97296.78;5032253;28;20859;-72
2022/10/16 05:17:35;;;;;;;4.97;2.35;;;14.30;99.90;;;13.42;100.00;97295.72;5032426;28;20419;-73
2022/10/16 05:20:01;;;;;;;9.77;3.00;;;14.30;99.90;;;13.45;100.00;97289.88;5032514;28;20407;-73
2022/10/16 05:22:28;;;;;;;10.10;2.90;;;14.30;99.90;;;13.43;100.00;97298.13;5032581;28;20485;-73
2022/10/16 05:24:54;;;;;;;5.90;2.85;;;14.30;99.90;;;13.45;100.00;97290.69;5031960;28;20403;-73
2022/10/16 05:27:20;;;;;;;11.48;2.85;;;14.30;99.90;;;13.41;100.00;97288.81;5025810;28;20418;-73
2022/10/16 05:29:47;;;;;;;18.70;2.75;;;14.30;99.90;;;13.38;100.00;97289.38;5032063;28;20406;-73
2022/10/16 05:32:14;;;;;;;10.10;2.57;;;14.20;99.90;;;13.36;100.00;97289.63;5032298;28;20411;-73
2022/10/16 05:34:40;;;;;;;17.70;2.70;;;14.20;99.90;;;13.35;100.00;97289.91;5031759;28;20399;-73
2022/10/16 05:37:06;;;;;;;8.27;3.08;;;14.20;99.90;;;13.32;100.00;97288.56;5031449;28;20497;-72
2022/10/16 05:39:33;;;;;;;7.47;2.58;;;14.20;99.90;;;13.34;100.00;97304.25;5030406;28;20470;-72
2022/10/16 05:41:59;;;;;;;12.07;2.55;;;14.20;99.90;;;13.31;100.00;97304.78;5031003;28;20430;-72
2022/10/16 05:44:25;;;;;;;12.70;3.15;;;14.20;99.90;;;13.31;100.00;97305.59;5031324;28;20761;-72
2022/10/16 05:46:51;;;;;;;6.05;2.67;;;14.20;99.90;;;13.31;100.00;97304.78;5031911;28;20888;-72
2022/10/16 05:49:16;;;;;;;4.28;2.72;;;14.20;99.90;;;13.33;100.00;97303.47;5030745;28;20415;-72
2022/10/16 05:51:42;;;;;;;11.18;2.65;;;14.20;99.90;;;13.32;100.00;97307.19;5030278;28;20416;-72
2022/10/16 05:54:09;;;;;;;5.75;2.78;;;14.20;99.90;;;13.33;100.00;97311.44;5031303;28;20958;-72
2022/10/16 05:56:36;;;;;;;12.02;2.85;;;14.20;99.90;;;13.32;100.00;97312.50;5031714;28;20768;-73
2022/10/16 05:59:03;;;;;;;7.72;2.58;;;14.20;99.90;;;13.31;100.00;97310.91;5030620;28;20423;-73
2022/10/16 06:01:30;;;;;;;9.70;2.70;;;14.10;99.90;;;13.37;100.00;97314.38;5030266;28;20419;-73
2022/10/16 06:03:57;;;;;;;7.93;2.95;;;14.20;99.90;;;13.34;100.00;97318.34;5030951;28;20418;-73
2022/10/16 06:06:26;;;;;;;11.50;2.60;;;14.20;99.90;;;13.33;100.00;97323.94;5031510;28;20395;-73
2022/10/16 06:08:54;;;;;;;5.45;2.38;;;14.20;99.90;;;13.33;100.00;97321.28;5031512;28;20958;-74
2022/10/16 06:11:24;;;;;;;4.38;2.53;;;14.20;99.90;;;13.33;100.00;97327.38;5031645;28;20403;-73
2022/10/16 06:13:52;;;;;;;8.43;2.58;;;14.20;99.90;;;13.35;100.00;97327.13;5029512;28;20788;-73
2022/10/16 06:16:18;;;;;;;8.40;2.47;;;14.20;99.90;;;13.34;100.00;97330.84;5031363;28;20884;-74
2022/10/16 06:18:44;;;;;;;5.00;2.40;;;14.20;99.90;;;13.35;100.00;97343.88;5029293;28;20903;-73
2022/10/16 06:21:14;;;;;;;19.55;3.17;;;14.20;99.90;;;13.32;100.00;97330.31;5030703;28;20912;-73
2022/10/16 06:23:40;;;;;;;9.20;2.40;;;14.20;99.90;;;13.35;100.00;97335.09;5030849;28;20486;-74
2022/10/16 06:26:07;;;;;;;11.45;3.38;;;14.20;99.90;;;13.35;100.00;97341.22;5031281;28;20414;-74
2022/10/16 06:28:33;;;;;;;7.45;2.22;;;14.20;99.90;;;13.38;100.00;97338.00;5031216;28;20392;-74
2022/10/16 06:31:02;;;;;;;6.67;3.10;;;14.20;99.90;;;13.40;100.00;97343.84;5031130;28;20405;-74
2022/10/16 06:33:28;;;;;;;6.10;2.50;;;14.30;99.90;;;13.43;100.00;97339.88;5030668;28;20490;-74
2022/10/16 06:36:00;;;;;;;6.40;2.50;;;14.30;99.90;;;13.46;100.00;97339.31;5030875;28;20458;-74
2022/10/16 06:38:26;;;;;;;7.17;2.40;;;14.30;99.90;;;13.50;100.00;97337.72;5030997;28;20444;-74
2022/10/16 06:40:53;;;;;;;8.63;2.50;;;14.30;99.90;;;13.54;100.00;97344.88;5030949;28;20491;-74
2022/10/16 06:43:19;;;;;;;5.38;2.38;;;14.40;99.90;;;13.61;100.00;97355.22;5030447;28;20805;-74
2022/10/16 06:45:52;;;;;;;6.87;2.50;;;14.40;99.90;;;13.59;100.00;97352.06;5028143;28;20429;-72
2022/10/16 06:48:19;;;;;;;4.88;2.38;;;14.40;99.90;;;13.60;100.00;97366.16;5029183;28;20814;-72
2022/10/16 06:50:56;;;;;;;5.45;2.40;;;14.40;99.90;;;13.64;100.00;97360.03;5024547;28;21132;-74
2022/10/16 06:53:23;;;;;;;9.57;2.85;;;14.50;99.90;;;13.69;100.00;97365.31;5026122;28;20417;-74
2022/10/16 06:55:48;;;;;;;6.45;2.40;;;14.50;99.90;;;13.73;100.00;97360.25;5030106;28;20406;-74
2022/10/16 06:58:14;;;;;;;9.10;3.38;;;14.60;99.90;;;13.72;100.00;97371.97;5030558;28;20415;-73
2022/10/16 07:00:40;;;;;;;9.68;3.00;;;14.50;99.90;;;13.73;100.00;97365.56;5030697;28;20777;-74
2022/10/16 07:03:06;;;;;;;9.75;2.97;;;14.50;99.90;;;13.78;100.00;97373.53;5030151;28;20411;-73
2022/10/16 07:05:37;;;;;;;8.95;2.50;;;14.60;99.90;;;13.85;100.00;97374.03;5030501;28;20443;-73
2022/10/16 07:08:05;;;;;;;7.93;2.30;;;14.60;99.90;;;13.85;100.00;97384.69;5030725;28;20486;-74
2022/10/16 07:10:31;;;;;;;8.90;2.65;;;14.60;99.90;;;13.86;100.00;97396.91;5030601;28;20745;-74
2022/10/16 07:12:57;;;;;;;10.82;2.30;;;14.60;99.90;;;13.89;100.00;97391.88;5030120;28;20602;-73
2022/10/16 07:15:22;;;;;;;11.37;2.57;;;14.70;99.90;;;13.93;100.00;97394.75;5030112;28;20403;-73
2022/10/16 07:17:48;;;;;;;7.73;2.20;;;14.70;99.90;;;14.02;100.00;97393.13;5030312;28;20889;-74
2022/10/16 07:20:14;;;;;;;3.93;2.47;;;14.80;99.90;;;14.05;100.00;97395.28;5030107;28;20458;-74
2022/10/16 07:22:42;;;;;;;13.27;2.50;;;14.90;99.90;;;14.09;100.00;97406.94;5030253;28;20402;-76
2022/10/16 07:25:08;;;;;;;6.43;2.17;;;14.90;99.90;;;14.11;100.00;97409.34;5025841;28;20444;-74
2022/10/16 07:27:34;;;;;;;5.38;2.20;;;14.90;99.90;;;14.20;100.00;97424.50;5027900;28;20423;-74
2022/10/16 07:30:00;;;;;;;8.60;2.38;;;15.00;99.90;;;14.11;100.00;97428.78;5029844;28;20415;-74
2022/10/16 07:32:26;;;;;;;5.75;2.25;;;14.90;99.90;;;14.13;100.00;97426.66;5030144;28;20498;-75
2022/10/16 07:34:52;;;;;;;7.13;2.25;;;14.90;99.90;;;14.16;100.00;97425.28;5029702;28;20399;-75
2022/10/16 07:37:19;;;;;;;8.88;2.38;;;14.90;99.90;;;14.12;100.00;97425.06;5029066;28;20419;-76
2022/10/16 07:39:46;;;;;;;6.37;2.13;;;14.90;99.90;;;14.14;100.00;97414.91;5028482;28;20421;-78
2022/10/16 07:42:12;;;;;;;5.40;2.13;;;14.90;99.90;;;14.24;100.00;97422.84;5027364;28;20786;-76
2022/10/16 07:44:38;;;;;;;7.00;2.08;;;15.10;99.90;;;14.26;100.00;97423.38;5028992;28;20409;-75
2022/10/16 07:47:04;;;;;;;4.78;2.20;;;15.00;99.90;;;14.28;100.00;97429.22;5029223;28;20797;-76
2022/10/16 07:49:29;;;;;;;10.80;2.57;;;15.10;99.90;;;14.25;100.00;97437.78;5027893;28;20940;-75
2022/10/16 07:51:56;;;;;;;6.37;2.30;;;15.00;99.90;;;14.28;100.00;97437.19;5027378;28;20430;-76
2022/10/16 07:54:22;;;;;;;3.30;1.95;;;15.10;99.90;;;14.27;100.00;97435.63;5028951;28;20453;-75
2022/10/16 07:56:49;;;;;;;3.88;1.90;;;15.10;99.90;;;14.36;100.00;97441.16;5026219;28;20423;-75
2022/10/16 07:59:15;;;;;;;3.30;2.10;;;15.10;99.90;;;14.36;100.00;97443.81;5027661;28;20419;-74
2022/10/16 08:01:44;;;;;;;4.70;2.00;;;15.10;99.90;;;14.44;100.00;97442.50;5025565;28;20493;-75
2022/10/16 08:04:10;;;;;;;12.17;2.00;;;15.20;99.90;;;14.40;100.00;97450.25;5024345;28;20451;-74
2022/10/16 08:06:38;;;;;;;3.05;1.80;;;15.20;99.90;;;14.53;100.00;97446.19;5023898;28;20415;-73
2022/10/16 08:09:05;;;;;;;4.28;1.90;;;15.30;99.90;;;14.57;100.00;97448.03;5030022;28;20418;-74
2022/10/16 08:11:32;;;;;;;6.30;1.80;;;15.30;99.90;;;14.53;100.00;97449.63;5024794;28;20433;-74
2022/10/16 08:13:59;;;;;;;2.83;1.77;;;15.30;99.90;;;14.67;100.00;97447.97;5020632;28;20960;-74
2022/10/16 08:16:25;;;;;;;4.75;1.83;;;15.40;99.90;;;14.71;100.00;97449.03;5028039;28;20399;-73
2022/10/16 08:18:51;;;;;;;4.23;1.70;;;15.50;99.90;;;14.94;100.00;97444.09;5029403;28;20451;-75
2022/10/16 08:21:20;;;;;;;9.57;2.10;;;15.60;99.90;;;14.88;100.00;97456.66;5025988;28;20447;-75
2022/10/16 08:23:46;;;;;;;8.00;1.73;;;15.70;99.90;;;15.06;100.00;97452.50;5024640;28;20924;-75
2022/10/16 08:26:12;;;;;;;3.72;1.80;;;15.80;99.90;;;15.11;100.00;97461.25;5028090;28;20464;-75
2022/10/16 08:28:38;;;;;;;5.82;1.98;;;15.90;99.90;;;15.17;100.00;97464.72;5027124;28;20746;-75
2022/10/16 08:31:08;;;;;;;1.87;1.40;;;15.90;99.90;;;15.29;100.00;97477.69;5026102;28;20411;-75
2022/10/16 08:33:35;;;;;;;3.20;1.40;;;16.00;99.90;;;15.35;100.00;97473.88;5029570;28;20421;-75
2022/10/16 08:36:01;;;;;;;3.78;1.65;;;16.00;99.90;;;15.39;100.00;97475.75;5029943;28;20399;-75
2022/10/16 08:38:27;;;;;;;2.60;1.73;;;16.10;99.90;;;15.62;100.00;97478.78;5033164;28;20536;-75
2022/10/16 08:41:02;;;;;;;4.43;1.70;;;16.20;99.90;;;15.57;100.00;97479.59;5032979;28;20761;-75
2022/10/16 08:43:43;;;;;;;2.63;1.60;;;16.30;99.90;;;15.51;100.00;97486.03;5030672;28;20797;-75
2022/10/16 08:46:30;;;;;;;3.20;1.65;;;16.30;99.90;;;15.56;100.00;97486.03;5032682;28;20462;-75
2022/10/16 08:48:59;;;;;;;1.80;1.60;;;16.30;99.90;;;15.67;100.00;97489.41;5032842;28;20410;-75
2022/10/16 08:51:29;;;;;;;2.58;1.58;;;16.40;99.90;;;15.66;100.00;97477.91;5032843;28;20410;-75
2022/10/16 08:53:58;;;;;;;4.83;1.50;;;16.40;99.90;;;15.53;100.00;97481.25;5032265;28;20885;-75
2022/10/16 08:56:25;;;;;;;4.63;1.60;;;16.30;99.90;;;15.50;100.00;97485.22;5032690;28;20542;-74
2022/10/16 08:58:54;;;;;;;5.55;1.83;;;16.30;99.90;;;15.58;100.00;97494.53;5029349;28;20426;-75
2022/10/16 09:01:23;;;;;;;3.47;1.80;;;16.30;99.90;;;15.59;100.00;97495.34;5029403;28;20407;-76
2022/10/16 09:04:23;;;;;;;5.97;1.50;;;16.30;99.90;;;15.53;100.00;97488.44;5030213;28;20407;-77
2022/10/16 09:06:54;;;;;;;5.45;1.50;;;16.30;99.90;;;15.54;100.00;97493.53;5032358;28;20398;-76
2022/10/16 09:09:50;;;;;;;6.13;2.10;;;16.30;99.90;;;15.60;100.00;97486.25;5028311;28;20800;-76
2022/10/16 09:12:21;;;;;;;2.40;1.65;;;16.30;99.90;;;15.75;100.00;97480.78;5031743;28;20426;-77
2022/10/16 09:15:17;;;;;;;3.58;1.60;;;16.40;99.90;;;15.85;100.00;97476.16;5024707;28;20406;-76
2022/10/16 09:17:56;;;;;;;3.10;1.45;;;16.50;99.90;;;15.90;100.00;97485.16;5019301;28;20419;-76
2022/10/16 09:20:36;;;;;;;2.60;1.50;;;16.60;99.90;;;15.98;100.00;97496.03;5027268;28;20421;-77
2022/10/16 09:23:16;;;;;;;2.72;1.70;;;16.70;99.90;;;15.99;100.00;97491.50;5024462;28;20759;-75
2022/10/16 09:25:47;;;;;;;3.80;1.60;;;16.70;99.90;;;16.14;100.00;97502.81;5027216;28;20886;-76
2022/10/16 09:28:14;;;;;;;3.80;1.50;;;16.80;99.90;;;16.06;100.00;97502.63;5026408;28;20911;-75
2022/10/16 09:30:40;;;;;;;2.95;1.42;;;16.80;99.90;;;16.30;100.00;97506.13;5031521;28;20422;-75
2022/10/16 09:33:09;;;;;;;5.28;1.77;;;16.90;99.90;;;16.30;100.00;97502.66;5031265;28;20784;-78
2022/10/16 09:35:39;;;;;;;4.22;1.58;;;17.00;99.90;;;16.41;100.00;97506.78;5030778;28;20422;-75
2022/10/16 09:38:06;;;;;;;3.05;1.50;;;17.10;99.90;;;16.45;100.00;97510.50;5032405;28;20415;-76
2022/10/16 09:40:35;;;;;;;2.80;1.25;;;17.10;99.90;;;16.43;100.00;97502.75;5032544;28;20412;-77
2022/10/16 09:43:20;;;;;;;4.88;1.70;;;17.20;99.90;;;16.39;100.00;97508.97;5031448;28;20496;-75
2022/10/16 09:45:58;;;;;;;2.50;1.48;;;17.10;99.90;;;16.44;100.00;97504.34;5024364;28;20904;-78
2022/10/16 09:48:31;;;;;;;6.93;1.70;;;17.10;99.90;;;16.34;100.00;97507.13;5032305;28;20533;-76
2022/10/16 09:51:00;;;;;;;1.90;1.33;;;17.10;99.90;;;16.46;100.00;97512.09;5032490;28;20767;-77
2022/10/16 09:53:42;;;;;;;1.95;1.70;;;17.10;99.90;;;16.56;100.00;97509.25;5029767;28;20418;-76
2022/10/16 09:56:13;;;;;;;2.55;1.50;;;17.20;99.90;;;16.76;100.00;97513.63;5032190;28;20789;-76
2022/10/16 09:58:44;;;;;;;4.78;1.40;;;17.40;99.90;;;16.88;100.00;97512.09;5030306;28;20916;-75
2022/10/16 10:01:14;;;;;;;2.33;1.35;;;17.50;99.90;;;17.14;100.00;97514.44;5027504;28;20619;-75
2022/10/16 10:03:43;;;;;;;2.50;1.50;;;17.70;99.90;;;17.51;100.00;97518.94;5029857;28;20500;-76
2022/10/16 10:06:24;;;;;;;5.95;1.58;;;18.00;99.90;;;17.65;100.00;97528.63;5030971;28;20407;-78
2022/10/16 10:09:05;;;;;;;3.60;1.35;;;18.20;99.90;;;17.62;100.00;97531.09;5024576;28;20395;-77
2022/10/16 10:11:56;;;;;;;4.03;1.60;;;18.20;99.90;;;17.58;100.00;97535.41;5031711;28;20395;-77
2022/10/16 10:14:38;;;;;;;2.47;1.57;;;18.30;99.90;;;17.50;100.00;97538.75;5041848;22;20949;-75
2022/10/16 10:17:15;;;;;;;4.68;1.67;;;18.10;99.90;;;17.38;100.00;97537.31;5030188;28;20454;-75